Time;durP1;ratioP1;P1;durP2;ratioP2;P2;SDS_P1;SDS_P2;PMS_P1;PMS_P2;Temp;Humidity;BMP_temperature;BMP_pressure;BME280_temperature;BME280_humidity;BME280_pressure;Samples;Min_cycle;Max_cycle;Signal;HPM_P1;HPM_P2
2021/04/27 00:00:02;;;;;;;4.13;2.40;;;;;;;;;;5016395;28;39346;-78
2021/04/27 00:02:28;;;;;;;8.50;3.20;;;;;;;;;;5024595;28;48432;-78
2021/04/27 00:04:54;;;;;;;4.13;2.53;;;;;;;;;;5020488;28;36836;-78
2021/04/27 00:07:21;;;;;;;5.60;2.40;;;;;;;;;;5034497;28;39405;-78
2021/04/27 00:09:48;;;;;;;7.47;2.67;;;;;;;;;;5016247;28;38133;-78
2021/04/27 00:12:14;;;;;;;7.53;2.80;;;;;;;;;;5019414;28;39323;-78
2021/04/27 00:14:40;;;;;;;8.90;3.50;;;;;;;;;;5022847;28;40255;-78
2021/04/27 00:17:07;;;;;;;7.17;3.23;;;;;;;;;;5023521;28;40022;-78
2021/04/27 00:19:33;;;;;;;7.53;3.17;;;;;;;;;;5026718;28;39630;-78
2021/04/27 00:22:00;;;;;;;5.47;2.90;;;;;;;;;;5015700;28;39463;-78
2021/04/27 00:24:30;;;;;;;4.47;2.63;;;;;;;;;;5019287;28;37029;-79
2021/04/27 00:26:57;;;;;;;7.73;3.23;;;;;;;;;;5025124;28;39577;-79
2021/04/27 00:29:23;;;;;;;6.73;2.63;;;;;;;;;;5024469;28;39107;-78
2021/04/27 00:31:49;;;;;;;7.53;3.37;;;;;;;;;;5024529;28;39418;-77
2021/04/27 00:34:16;;;;;;;5.60;2.60;;;;;;;;;;5031611;28;37151;-79
2021/04/27 00:36:43;;;;;;;8.27;2.60;;;;;;;;;;5041202;28;39651;-78
2021/04/27 00:39:09;;;;;;;6.50;2.80;;;;;;;;;;5042495;28;39622;-78
2021/04/27 00:41:35;;;;;;;8.83;3.17;;;;;;;;;;5029022;28;38303;-78
2021/04/27 00:44:02;;;;;;;7.50;3.00;;;;;;;;;;5024451;28;36984;-77
2021/04/27 00:46:28;;;;;;;10.93;3.03;;;;;;;;;;5025639;28;38552;-78
2021/04/27 00:48:54;;;;;;;5.90;3.07;;;;;;;;;;5022210;28;38970;-78
2021/04/27 00:51:21;;;;;;;6.00;3.20;;;;;;;;;;5023773;28;37578;-78
2021/04/27 00:53:48;;;;;;;5.47;2.67;;;;;;;;;;5022149;28;37204;-78
2021/04/27 00:56:15;;;;;;;7.47;2.97;;;;;;;;;;5015212;28;40401;-78
2021/04/27 00:58:41;;;;;;;5.30;2.80;;;;;;;;;;5025737;28;39301;-78
2021/04/27 01:01:11;;;;;;;11.23;3.43;;;;;;;;;;5016106;28;38703;-78
2021/04/27 01:03:38;;;;;;;8.33;3.57;;;;;;;;;;5020487;28;37630;-78
2021/04/27 01:06:05;;;;;;;8.43;2.93;;;;;;;;;;5025128;28;39636;-77
2021/04/27 01:08:57;;;;;;;7.73;2.90;;;;;;;;;;5024280;28;39657;-78
2021/04/27 01:11:31;;;;;;;5.22;3.25;;;;;;;;;;5019220;28;37581;-77
2021/04/27 01:14:03;;;;;;;7.03;3.03;;;;;;;;;;5022483;28;36945;-78
2021/04/27 01:16:31;;;;;;;10.03;3.50;;;;;;;;;;5024326;28;47087;-78
2021/04/27 01:18:58;;;;;;;7.00;3.27;;;;;;;;;;5020776;28;39592;-78
2021/04/27 01:21:26;;;;;;;6.43;3.57;;;;;;;;;;5023338;28;38157;-78
2021/04/27 01:24:11;;;;;;;5.50;3.33;;;;;;;;;;5015774;28;37621;-78
2021/04/27 01:26:39;;;;;;;7.50;3.47;;;;;;;;;;5014302;28;48936;-78
2021/04/27 01:29:08;;;;;;;7.30;3.93;;;;;;;;;;5035906;28;38949;-78
2021/04/27 01:31:35;;;;;;;9.70;3.43;;;;;;;;;;5017402;28;38942;-78
2021/04/27 01:34:03;;;;;;;6.63;3.30;;;;;;;;;;5022280;28;36541;-78
2021/04/27 01:36:29;;;;;;;5.07;3.53;;;;;;;;;;5033199;28;47254;-78
2021/04/27 01:38:56;;;;;;;7.40;3.43;;;;;;;;;;5023292;28;39114;-78
2021/04/27 01:41:22;;;;;;;6.20;3.70;;;;;;;;;;5024064;28;39140;-78
2021/04/27 01:43:49;;;;;;;8.27;3.97;;;;;;;;;;5026118;28;36575;-78
2021/04/27 01:46:16;;;;;;;8.90;3.70;;;;;;;;;;5020695;28;39483;-77
2021/04/27 01:48:43;;;;;;;7.10;4.47;;;;;;;;;;5023503;28;38971;-78
2021/04/27 01:51:10;;;;;;;8.23;3.90;;;;;;;;;;5014678;28;39529;-79
2021/04/27 01:53:41;;;;;;;5.57;3.77;;;;;;;;;;5024933;28;37913;-78
2021/04/27 01:56:08;;;;;;;7.90;3.40;;;;;;;;;;5038661;28;38935;-78
2021/04/27 01:58:34;;;;;;;10.00;4.07;;;;;;;;;;5022981;28;39882;-78
2021/04/27 02:01:01;;;;;;;12.03;4.37;;;;;;;;;;5016645;28;39812;-78
2021/04/27 02:03:28;;;;;;;6.57;3.23;;;;;;;;;;5036147;28;39305;-78
2021/04/27 02:05:55;;;;;;;8.57;4.23;;;;;;;;;;5025327;28;40793;-78
2021/04/27 02:08:21;;;;;;;9.50;3.47;;;;;;;;;;5035256;28;39032;-78
2021/04/27 02:10:48;;;;;;;6.00;3.53;;;;;;;;;;5021740;28;37045;-78
2021/04/27 02:13:17;;;;;;;7.53;4.27;;;;;;;;;;5025645;28;37893;-78
2021/04/27 02:15:45;;;;;;;11.03;3.90;;;;;;;;;;5021504;28;39289;-78
2021/04/27 02:18:14;;;;;;;9.03;4.33;;;;;;;;;;5025510;28;38368;-77
2021/04/27 02:20:41;;;;;;;9.07;4.13;;;;;;;;;;5020055;28;39327;-78
2021/04/27 02:23:07;;;;;;;7.53;3.40;;;;;;;;;;5022473;28;37327;-78
2021/04/27 02:25:34;;;;;;;7.90;4.30;;;;;;;;;;5012323;28;39936;-78
2021/04/27 02:28:01;;;;;;;6.97;4.30;;;;;;;;;;5019522;28;39773;-78
2021/04/27 02:30:28;;;;;;;8.47;3.97;;;;;;;;;;5018826;28;46750;-78
2021/04/27 02:32:54;;;;;;;7.50;4.30;;;;;;;;;;5022055;28;37104;-78
2021/04/27 02:35:22;;;;;;;7.73;4.50;;;;;;;;;;5029869;28;40880;-78
2021/04/27 02:37:49;;;;;;;9.53;4.63;;;;;;;;;;5025402;28;38855;-78
2021/04/27 02:40:19;;;;;;;8.50;4.10;;;;;;;;;;5015337;28;38387;-77
2021/04/27 02:42:51;;;;;;;6.23;4.60;;;;;;;;;;5020461;28;38001;-77
2021/04/27 02:45:17;;;;;;;6.40;4.37;;;;;;;;;;5019529;28;38929;-78
2021/04/27 02:47:44;;;;;;;7.93;4.43;;;;;;;;;;5022414;28;39307;-78
2021/04/27 02:50:12;;;;;;;7.73;4.03;;;;;;;;;;5019665;28;39402;-78
2021/04/27 02:52:39;;;;;;;6.63;4.53;;;;;;;;;;5024428;28;36779;-77
2021/04/27 02:55:06;;;;;;;5.70;4.00;;;;;;;;;;5017424;28;39265;-78
2021/04/27 02:57:32;;;;;;;11.53;4.10;;;;;;;;;;5021337;28;40348;-78
2021/04/27 02:59:59;;;;;;;9.20;4.50;;;;;;;;;;5019426;28;39437;-78
2021/04/27 03:02:25;;;;;;;9.40;4.90;;;;;;;;;;5011704;28;35992;-78
2021/04/27 03:04:51;;;;;;;8.40;4.50;;;;;;;;;;5021366;28;38966;-78
2021/04/27 03:07:18;;;;;;;11.77;4.70;;;;;;;;;;5037074;28;37545;-78
2021/04/27 03:09:44;;;;;;;7.83;4.90;;;;;;;;;;5019902;28;38849;-78
2021/04/27 03:12:10;;;;;;;9.03;4.50;;;;;;;;;;5024536;28;36489;-78
2021/04/27 03:14:37;;;;;;;7.57;4.20;;;;;;;;;;5021864;28;38822;-78
2021/04/27 03:17:03;;;;;;;7.23;4.90;;;;;;;;;;5021017;28;38905;-79
2021/04/27 03:19:30;;;;;;;5.93;4.33;;;;;;;;;;5021918;28;39047;-78
2021/04/27 03:21:56;;;;;;;9.30;5.00;;;;;;;;;;5024388;28;38233;-79
2021/04/27 03:24:22;;;;;;;6.00;4.60;;;;;;;;;;5025324;28;40027;-78
2021/04/27 03:26:49;;;;;;;8.67;5.03;;;;;;;;;;5025935;28;39359;-78
2021/04/27 03:29:15;;;;;;;8.07;5.10;;;;;;;;;;5025762;28;39482;-78
2021/04/27 03:31:42;;;;;;;11.20;4.90;;;;;;;;;;5023272;28;37357;-78
2021/04/27 03:34:08;;;;;;;8.70;4.93;;;;;;;;;;5021026;28;39642;-78
2021/04/27 03:36:34;;;;;;;10.23;5.47;;;;;;;;;;5025534;28;38738;-78
2021/04/27 03:39:01;;;;;;;7.03;5.27;;;;;;;;;;5026481;28;38354;-79
2021/04/27 03:41:27;;;;;;;8.53;5.33;;;;;;;;;;5027437;28;48700;-78
2021/04/27 03:43:53;;;;;;;9.20;5.07;;;;;;;;;;5024325;28;39715;-77
2021/04/27 03:46:20;;;;;;;12.43;5.10;;;;;;;;;;5025951;28;38494;-78
2021/04/27 03:48:46;;;;;;;8.73;4.63;;;;;;;;;;5018537;28;38734;-77
2021/04/27 03:51:13;;;;;;;6.60;4.70;;;;;;;;;;5038630;28;37354;-78
2021/04/27 03:53:39;;;;;;;10.57;5.03;;;;;;;;;;5025537;28;40140;-78
2021/04/27 03:56:05;;;;;;;8.53;4.90;;;;;;;;;;5020803;28;39511;-77
2021/04/27 03:58:32;;;;;;;8.67;5.00;;;;;;;;;;5034835;28;39409;-78
2021/04/27 04:00:58;;;;;;;9.63;4.77;;;;;;;;;;5018650;28;37540;-78
2021/04/27 04:03:25;;;;;;;8.27;4.70;;;;;;;;;;5020167;28;39164;-78
2021/04/27 04:05:51;;;;;;;7.87;4.80;;;;;;;;;;5028598;28;38743;-78
2021/04/27 04:08:17;;;;;;;8.20;5.27;;;;;;;;;;5041090;28;38946;-78
2021/04/27 04:10:44;;;;;;;7.03;5.50;;;;;;;;;;5026105;28;36944;-78
2021/04/27 04:13:10;;;;;;;8.03;5.37;;;;;;;;;;5023615;28;39899;-78
2021/04/27 04:15:37;;;;;;;10.80;5.90;;;;;;;;;;5042211;28;37801;-78
2021/04/27 04:18:03;;;;;;;9.83;5.07;;;;;;;;;;5029433;28;39423;-78
2021/04/27 04:20:29;;;;;;;8.27;5.07;;;;;;;;;;5026300;28;35819;-78
2021/04/27 04:22:56;;;;;;;10.73;4.97;;;;;;;;;;5027755;28;39008;-78
2021/04/27 04:25:22;;;;;;;11.40;5.13;;;;;;;;;;5044009;28;38974;-78
2021/04/27 04:27:49;;;;;;;6.67;4.43;;;;;;;;;;5026563;28;39453;-78
2021/04/27 04:30:18;;;;;;;8.00;5.03;;;;;;;;;;5025557;28;37511;-78
2021/04/27 04:32:44;;;;;;;9.90;5.60;;;;;;;;;;5022508;28;42648;-78
2021/04/27 04:35:11;;;;;;;8.00;4.60;;;;;;;;;;5028708;28;39444;-78
2021/04/27 04:37:38;;;;;;;8.93;4.50;;;;;;;;;;5022459;28;38181;-78
2021/04/27 04:40:06;;;;;;;7.07;4.50;;;;;;;;;;5018443;28;37460;-78
2021/04/27 04:42:32;;;;;;;8.97;5.03;;;;;;;;;;5020412;28;39727;-79
2021/04/27 04:44:58;;;;;;;8.30;4.60;;;;;;;;;;5019939;28;40693;-78
2021/04/27 04:47:25;;;;;;;6.87;4.30;;;;;;;;;;5035137;28;38950;-78
2021/04/27 04:49:51;;;;;;;7.27;5.03;;;;;;;;;;5023364;28;37362;-78
2021/04/27 04:52:18;;;;;;;13.43;4.90;;;;;;;;;;5018837;28;39545;-77
2021/04/27 04:54:44;;;;;;;8.57;4.83;;;;;;;;;;5022593;28;39280;-77
2021/04/27 04:57:10;;;;;;;8.57;4.93;;;;;;;;;;5024010;28;38550;-77
2021/04/27 04:59:37;;;;;;;8.37;4.30;;;;;;;;;;5020898;28;37825;-78
2021/04/27 05:02:03;;;;;;;7.97;4.47;;;;;;;;;;5017695;28;38935;-77
2021/04/27 05:04:30;;;;;;;7.17;4.50;;;;;;;;;;5018602;28;39752;-77
2021/04/27 05:07:04;;;;;;;9.17;4.40;;;;;;;;;;5017620;28;38846;-77
2021/04/27 05:09:30;;;;;;;9.73;4.77;;;;;;;;;;5016312;28;47315;-77
2021/04/27 05:11:57;;;;;;;10.60;4.37;;;;;;;;;;5021164;28;39136;-77
2021/04/27 05:14:24;;;;;;;8.57;4.60;;;;;;;;;;5023483;28;38981;-77
2021/04/27 05:16:50;;;;;;;7.70;4.63;;;;;;;;;;5020701;28;38484;-77
2021/04/27 05:19:17;;;;;;;11.93;5.03;;;;;;;;;;5020544;28;37525;-77
2021/04/27 05:21:44;;;;;;;5.50;4.13;;;;;;;;;;5016617;28;38444;-77
2021/04/27 05:24:10;;;;;;;7.43;4.30;;;;;;;;;;5036197;28;36872;-77
2021/04/27 05:26:37;;;;;;;6.87;4.83;;;;;;;;;;5036837;28;38434;-77
2021/04/27 05:29:03;;;;;;;5.53;4.37;;;;;;;;;;5018551;28;36986;-76
2021/04/27 05:31:30;;;;;;;8.53;4.40;;;;;;;;;;5020183;28;38636;-78
2021/04/27 05:33:56;;;;;;;5.03;4.00;;;;;;;;;;5035705;28;38660;-78
2021/04/27 05:36:22;;;;;;;9.53;4.13;;;;;;;;;;5021255;28;39114;-77
2021/04/27 05:38:49;;;;;;;8.27;4.67;;;;;;;;;;5018761;28;37345;-77
2021/04/27 05:41:15;;;;;;;8.83;4.23;;;;;;;;;;5038637;28;40038;-77
2021/04/27 05:43:41;;;;;;;7.50;4.47;;;;;;;;;;5018683;28;39737;-78
2021/04/27 05:46:08;;;;;;;9.93;4.70;;;;;;;;;;5026283;28;38256;-78
2021/04/27 05:48:35;;;;;;;6.40;4.37;;;;;;;;;;5024905;28;36455;-77
2021/04/27 05:51:01;;;;;;;7.03;4.50;;;;;;;;;;5021333;28;39473;-78
2021/04/27 05:53:27;;;;;;;6.40;4.17;;;;;;;;;;5023786;28;41775;-77
2021/04/27 05:55:54;;;;;;;6.00;4.10;;;;;;;;;;5024965;28;40308;-78
2021/04/27 05:58:20;;;;;;;7.97;4.27;;;;;;;;;;5016249;28;36700;-77
2021/04/27 06:00:47;;;;;;;9.53;4.33;;;;;;;;;;5034918;28;38025;-77
2021/04/27 06:03:13;;;;;;;6.27;4.40;;;;;;;;;;5016940;28;38954;-78
2021/04/27 06:05:39;;;;;;;7.13;4.27;;;;;;;;;;5024446;28;38332;-77
2021/04/27 06:08:06;;;;;;;5.97;3.93;;;;;;;;;;5019010;28;36765;-78
2021/04/27 06:10:32;;;;;;;6.43;4.50;;;;;;;;;;5019793;28;40902;-77
2021/04/27 06:12:59;;;;;;;10.67;4.00;;;;;;;;;;5020718;28;39051;-77
2021/04/27 06:15:25;;;;;;;6.17;4.07;;;;;;;;;;5016066;28;38699;-77
2021/04/27 06:17:52;;;;;;;9.67;4.97;;;;;;;;;;5019465;28;37521;-77
2021/04/27 06:20:18;;;;;;;8.37;4.23;;;;;;;;;;5018223;28;38427;-77
2021/04/27 06:22:44;;;;;;;7.87;4.13;;;;;;;;;;5022002;28;38958;-77
2021/04/27 06:25:11;;;;;;;6.50;4.37;;;;;;;;;;5013906;28;36715;-77
2021/04/27 06:27:38;;;;;;;9.10;4.93;;;;;;;;;;5017252;28;35412;-77
2021/04/27 06:30:06;;;;;;;8.20;4.90;;;;;;;;;;5020830;28;39946;-76
2021/04/27 06:32:32;;;;;;;8.23;5.17;;;;;;;;;;5024679;28;37859;-77
2021/04/27 06:34:59;;;;;;;11.43;5.60;;;;;;;;;;5032336;28;39386;-77
2021/04/27 06:37:26;;;;;;;6.90;4.30;;;;;;;;;;5018295;28;37719;-77
2021/04/27 06:39:52;;;;;;;7.33;4.20;;;;;;;;;;5018224;28;37742;-78
2021/04/27 06:42:19;;;;;;;8.53;4.40;;;;;;;;;;5021258;28;39770;-77
2021/04/27 06:44:45;;;;;;;8.27;4.33;;;;;;;;;;5030717;28;38990;-78
2021/04/27 06:47:12;;;;;;;10.17;4.57;;;;;;;;;;5039425;28;37624;-77
2021/04/27 06:49:39;;;;;;;6.27;4.43;;;;;;;;;;5027779;28;40964;-78
2021/04/27 06:52:06;;;;;;;7.73;4.90;;;;;;;;;;5028036;28;38148;-77
2021/04/27 06:54:33;;;;;;;5.50;3.80;;;;;;;;;;5027584;28;39720;-77
2021/04/27 06:57:00;;;;;;;9.57;4.87;;;;;;;;;;5025335;28;37505;-77
2021/04/27 06:59:31;;;;;;;8.43;4.20;;;;;;;;;;5026123;28;39808;-78
2021/04/27 07:01:58;;;;;;;5.90;4.73;;;;;;;;;;5020913;28;40265;-78
2021/04/27 07:04:25;;;;;;;4.83;4.03;;;;;;;;;;5030352;28;39931;-78
2021/04/27 07:06:52;;;;;;;7.80;4.70;;;;;;;;;;5020130;28;36692;-78
2021/04/27 07:09:19;;;;;;;6.83;4.53;;;;;;;;;;5030115;28;40204;-78
2021/04/27 07:11:45;;;;;;;6.05;3.67;;;;;;;;;;5040813;28;40752;-78
2021/04/27 07:14:12;;;;;;;6.40;4.60;;;;;;;;;;5020504;28;38672;-78
2021/04/27 07:16:38;;;;;;;7.85;4.65;;;;;;;;;;5018321;28;37221;-77
2021/04/27 07:19:05;;;;;;;9.23;5.15;;;;;;;;;;5020896;28;40446;-76
2021/04/27 07:21:31;;;;;;;6.40;4.38;;;;;;;;;;5020601;28;39995;-76
2021/04/27 07:23:57;;;;;;;5.93;4.28;;;;;;;;;;5023868;28;38340;-77
2021/04/27 07:26:25;;;;;;;7.47;4.65;;;;;;;;;;5022159;28;37474;-77
2021/04/27 07:28:51;;;;;;;7.05;4.75;;;;;;;;;;5038458;28;39622;-78
2021/04/27 07:31:18;;;;;;;6.32;4.18;;;;;;;;;;5022885;28;39335;-77
2021/04/27 07:33:46;;;;;;;8.43;4.90;;;;;;;;;;5018636;28;39628;-77
2021/04/27 07:36:13;;;;;;;8.55;4.40;;;;;;;;;;5026839;28;37797;-77
2021/04/27 07:38:39;;;;;;;5.15;3.75;;;;;;;;;;5023926;28;38858;-77
2021/04/27 07:41:06;;;;;;;7.13;4.25;;;;;;;;;;5031113;28;40131;-76
2021/04/27 07:43:34;;;;;;;6.95;4.70;;;;;;;;;;5017114;28;38301;-77
2021/04/27 07:46:00;;;;;;;6.85;4.70;;;;;;;;;;5022060;28;37445;-77
2021/04/27 07:48:27;;;;;;;6.63;5.22;;;;;;;;;;5025247;28;38831;-77
2021/04/27 07:50:53;;;;;;;6.00;4.18;;;;;;;;;;5025365;28;40937;-77
2021/04/27 07:53:20;;;;;;;10.10;4.82;;;;;;;;;;5023642;28;38674;-77
2021/04/27 07:55:47;;;;;;;6.80;4.75;;;;;;;;;;5022174;28;36980;-77
2021/04/27 07:58:13;;;;;;;9.38;4.75;;;;;;;;;;5020726;28;39855;-76
2021/04/27 08:00:40;;;;;;;9.88;4.75;;;;;;;;;;5022169;28;40252;-76
2021/04/27 08:03:06;;;;;;;7.78;4.70;;;;;;;;;;5017209;28;39490;-76
2021/04/27 08:05:33;;;;;;;9.63;4.63;;;;;;;;;;5020917;28;37521;-77
2021/04/27 08:07:59;;;;;;;6.80;3.78;;;;;;;;;;5023764;28;37538;-78
2021/04/27 08:10:26;;;;;;;4.95;4.10;;;;;;;;;;5023088;28;38805;-77
2021/04/27 08:12:53;;;;;;;8.25;4.40;;;;;;;;;;5027231;28;39193;-78
2021/04/27 08:15:24;;;;;;;6.85;4.18;;;;;;;;;;5026665;28;36926;-76
2021/04/27 08:17:51;;;;;;;8.30;4.20;;;;;;;;;;5024742;28;40026;-77
2021/04/27 08:20:17;;;;;;;8.95;5.20;;;;;;;;;;5035247;28;39703;-77
2021/04/27 08:22:45;;;;;;;10.63;4.85;;;;;;;;;;5038495;28;38448;-77
2021/04/27 08:25:14;;;;;;;6.57;4.93;;;;;;;;;;5015521;28;37618;-77
2021/04/27 08:27:41;;;;;;;6.32;4.97;;;;;;;;;;5023956;28;39562;-76
2021/04/27 08:30:08;;;;;;;7.65;4.95;;;;;;;;;;5015768;28;39271;-76
2021/04/27 08:32:34;;;;;;;8.07;4.82;;;;;;;;;;5020309;28;39640;-77
2021/04/27 08:35:02;;;;;;;5.82;5.20;;;;;;;;;;5026516;28;37145;-76
2021/04/27 08:37:29;;;;;;;7.88;4.90;;;;;;;;;;5022848;28;47472;-76
2021/04/27 08:39:55;;;;;;;9.13;5.15;;;;;;;;;;5028705;28;39449;-76
2021/04/27 08:42:22;;;;;;;6.28;4.70;;;;;;;;;;5038744;28;40312;-76
2021/04/27 08:44:48;;;;;;;9.10;5.10;;;;;;;;;;5024160;28;37304;-76
2021/04/27 08:47:14;;;;;;;6.07;4.78;;;;;;;;;;5026891;28;38647;-76
2021/04/27 08:49:41;;;;;;;6.32;5.15;;;;;;;;;;5026744;28;38663;-77
2021/04/27 08:52:07;;;;;;;8.90;5.15;;;;;;;;;;5027215;28;38515;-75
2021/04/27 08:54:37;;;;;;;10.10;5.45;;;;;;;;;;5028568;28;37852;-76
2021/04/27 08:57:07;;;;;;;7.40;5.32;;;;;;;;;;5041651;28;39519;-76
2021/04/27 08:59:33;;;;;;;8.75;5.10;;;;;;;;;;5023400;28;38876;-76
2021/04/27 09:01:59;;;;;;;8.52;5.78;;;;;;;;;;5024810;28;40009;-76
2021/04/27 09:04:45;;;;;;;7.28;4.72;;;;;;;;;;5021460;28;34878;-76
2021/04/27 09:07:18;;;;;;;6.65;5.00;;;;;;;;;;5029370;28;37994;-76
2021/04/27 09:09:44;;;;;;;;;;;;;;;;;;5020354;28;39221;-76
2021/04/27 09:12:11;;;;;;;7.68;4.80;;;;;;;;;;5015168;28;38894;-77
2021/04/27 09:14:38;;;;;;;7.30;5.07;;;;;;;;;;5011770;28;37134;-77
2021/04/27 09:17:06;;;;;;;8.45;5.53;;;;;;;;;;5027692;28;38008;-77
2021/04/27 09:19:39;;;;;;;10.48;5.70;;;;;;;;;;5036391;28;39059;-77
2021/04/27 09:22:17;;;;;;;9.18;5.18;;;;;;;;;;5019970;28;38846;-77
2021/04/27 09:24:45;;;;;;;6.38;5.05;;;;;;;;;;5028169;28;36811;-79
2021/04/27 09:27:12;;;;;;;6.15;4.90;;;;;;;;;;5036409;28;39539;-80
2021/04/27 09:29:41;;;;;;;8.50;5.00;;;;;;;;;;5031019;28;39083;-80
2021/04/27 09:32:26;;;;;;;8.20;5.28;;;;;;;;;;5138279;23;38644;-81
2021/04/27 09:35:11;;;;;;;7.60;5.63;;;;;;;;;;5067831;28;37265;-82
2021/04/27 09:37:37;;;;;;;8.88;4.93;;;;;;;;;;5069673;28;47306;-81
2021/04/27 09:40:05;;;;;;;6.43;4.35;;;;;;;;;;5087044;28;39216;-80
2021/04/27 09:42:31;;;;;;;9.25;4.88;;;;;;;;;;5058170;28;40037;-82
2021/04/27 09:44:59;;;;;;;8.15;4.50;;;;;;;;;;5071021;28;36915;-82
2021/04/27 09:47:37;;;;;;;7.07;4.65;;;;;;;;;;5068819;28;38837;-80
2021/04/27 09:50:11;;;;;;;8.73;4.28;;;;;;;;;;5082781;28;38444;-80
2021/04/27 09:52:46;;;;;;;6.72;4.95;;;;;;;;;;5067723;28;39990;-81
2021/04/27 09:55:16;;;;;;;7.03;4.47;;;;;;;;;;5463990;23;36943;-80
2021/04/27 09:57:50;;;;;;;6.82;4.18;;;;;;;;;;5024256;28;39004;-81
2021/04/27 10:02:53;;;;;;;5.30;4.50;;;;;;;;;;5370234;22;20090;-79
2021/04/27 10:05:52;;;;;;;7.75;4.20;;;;;;;;;;5039580;28;36903;-80
2021/04/27 10:08:21;;;;;;;9.27;4.55;;;;;;;;;;5016718;28;38910;-81
2021/04/27 10:21:24;;;;;;;6.97;4.68;;;;;;;;;;5485445;22;20046;-79
2021/04/27 10:26:29;;;;;;;5.53;4.40;;;;;;;;;;5439082;22;20056;-80
2021/04/27 10:29:07;;;;;;;5.57;5.00;;;;;;;;;;5026671;28;40383;-79
2021/04/27 10:31:43;;;;;;;10.15;4.82;;;;;;;;;;5786473;22;49889;-79
2021/04/27 10:36:50;;;;;;;7.90;4.28;;;;;;;;;;5172267;22;20042;-80
2021/04/27 10:39:18;;;;;;;5.63;4.20;;;;;;;;;;5077399;28;40134;-80
2021/04/27 10:41:57;;;;;;;5.57;4.35;;;;;;;;;;5056112;28;39596;-80
2021/04/27 10:44:49;;;;;;;10.18;4.95;;;;;;;;;;5058741;28;38941;-79
2021/04/27 10:47:23;;;;;;;8.70;5.13;;;;;;;;;;5163217;22;36361;-79
2021/04/27 10:49:56;;;;;;;8.32;4.50;;;;;;;;;;5056014;28;40288;-79
2021/04/27 10:52:35;;;;;;;9.20;4.70;;;;;;;;;;5018513;28;38790;-81
2021/04/27 10:55:25;;;;;;;4.90;4.10;;;;;;;;;;5051302;23;39770;-78
2021/04/27 10:58:04;;;;;;;8.23;4.28;;;;;;;;;;5033828;28;37353;-80
2021/04/27 11:01:02;;;;;;;5.50;4.57;;;;;;;;;;5039035;28;47106;-80
2021/04/27 11:03:51;;;;;;;6.25;3.90;;;;;;;;;;5045597;28;47922;-81
2021/04/27 11:06:19;;;;;;;5.97;4.50;;;;;;;;;;5039846;28;39071;-81
2021/04/27 11:11:35;;;;;;;7.75;3.97;;;;;;;;;;5387407;23;20045;-80
2021/04/27 11:16:39;;;;;;;5.80;4.25;;;;;;;;;;5613348;22;20022;-80
2021/04/27 11:19:21;;;;;;;6.93;4.68;;;;;;;;;;5039690;28;36733;-80
2021/04/27 11:22:14;;;;;;;7.15;4.55;;;;;;;;;;5041290;28;39053;-81
2021/04/27 11:24:41;;;;;;;8.65;4.53;;;;;;;;;;5056041;28;50311;-79
2021/04/27 11:27:20;;;;;;;9.13;5.70;;;;;;;;;;5033454;28;39150;-80
2021/04/27 11:29:57;;;;;;;6.55;4.55;;;;;;;;;;5045470;28;38768;-81
2021/04/27 11:32:24;;;;;;;6.70;4.63;;;;;;;;;;5037636;28;38954;-81
2021/04/27 11:34:55;;;;;;;6.00;5.07;;;;;;;;;;5039687;28;38998;-81
2021/04/27 11:37:23;;;;;;;6.13;4.60;;;;;;;;;;5038831;28;38424;-80
2021/04/27 11:40:21;;;;;;;8.65;4.68;;;;;;;;;;5038672;28;37255;-80
2021/04/27 11:42:58;;;;;;;6.53;4.60;;;;;;;;;;5044019;28;48317;-80
2021/04/27 11:45:27;;;;;;;8.52;4.50;;;;;;;;;;5048857;28;39426;-81
2021/04/27 11:47:54;;;;;;;6.05;4.35;;;;;;;;;;5056646;28;39633;-80
2021/04/27 11:50:21;;;;;;;6.90;5.22;;;;;;;;;;5039243;28;37018;-80
2021/04/27 11:52:49;;;;;;;6.22;5.05;;;;;;;;;;5057771;28;39010;-80
2021/04/27 11:55:23;;;;;;;6.93;4.90;;;;;;;;;;5034791;28;39045;-80
2021/04/27 11:58:10;;;;;;;7.57;4.75;;;;;;;;;;5061396;28;39967;-80
2021/04/27 12:00:39;;;;;;;6.55;4.30;;;;;;;;;;5048597;28;49964;-80
2021/04/27 12:03:15;;;;;;;9.10;4.25;;;;;;;;;;5034959;28;39452;-80
2021/04/27 12:05:51;;;;;;;7.15;4.65;;;;;;;;;;5025359;28;39023;-80
2021/04/27 12:08:18;;;;;;;7.75;5.15;;;;;;;;;;5023847;28;38494;-79
2021/04/27 12:11:04;;;;;;;8.45;4.95;;;;;;;;;;5044081;28;37144;-80
2021/04/27 12:13:30;;;;;;;8.13;4.22;;;;;;;;;;5034414;28;48369;-80
2021/04/27 12:16:07;;;;;;;7.25;4.57;;;;;;;;;;5051494;28;39237;-80
2021/04/27 12:18:45;;;;;;;8.35;4.15;;;;;;;;;;5064379;28;50105;-80
2021/04/27 12:21:30;;;;;;;6.07;4.38;;;;;;;;;;5050676;28;35628;-81
2021/04/27 12:24:07;;;;;;;5.72;4.25;;;;;;;;;;5042840;28;38538;-80
2021/04/27 12:26:33;;;;;;;4.72;4.25;;;;;;;;;;5065662;28;48331;-80
2021/04/27 12:29:00;;;;;;;5.55;4.18;;;;;;;;;;5071222;28;37883;-81
2021/04/27 12:31:27;;;;;;;5.95;4.20;;;;;;;;;;5045547;28;36867;-79
2021/04/27 12:33:58;;;;;;;9.20;4.43;;;;;;;;;;5061835;28;38354;-80
2021/04/27 12:36:42;;;;;;;7.75;4.68;;;;;;;;;;5054092;28;39631;-80
2021/04/27 12:39:23;;;;;;;6.88;4.30;;;;;;;;;;5046307;28;39176;-80
2021/04/27 12:41:53;;;;;;;5.83;4.60;;;;;;;;;;5066739;28;37092;-80
2021/04/27 12:44:37;;;;;;;6.53;4.13;;;;;;;;;;5051826;28;39262;-80
2021/04/27 12:47:05;;;;;;;4.75;4.32;;;;;;;;;;5042661;28;40657;-79
2021/04/27 12:49:34;;;;;;;5.20;4.30;;;;;;;;;;5055510;28;40047;-80
2021/04/27 12:52:07;;;;;;;4.93;4.13;;;;;;;;;;5045538;28;35795;-80
2021/04/27 12:54:34;;;;;;;5.53;4.45;;;;;;;;;;5046718;28;47969;-79
2021/04/27 12:57:19;;;;;;;5.90;4.07;;;;;;;;;;5038893;28;39792;-79
2021/04/27 12:59:46;;;;;;;5.70;4.40;;;;;;;;;;5054961;28;49500;-80
2021/04/27 13:02:12;;;;;;;6.47;4.57;;;;;;;;;;5041238;28;35997;-79
2021/04/27 13:04:47;;;;;;;6.45;4.95;;;;;;;;;;5037329;28;38101;-79
2021/04/27 13:07:22;;;;;;;8.80;4.55;;;;;;;;;;5028311;28;38733;-79
2021/04/27 13:09:49;;;;;;;5.25;4.57;;;;;;;;;;5056809;28;38479;-80
2021/04/27 13:12:16;;;;;;;7.47;4.70;;;;;;;;;;5060068;28;37217;-81
2021/04/27 13:14:43;;;;;;;6.75;4.88;;;;;;;;;;5054198;28;38962;-80
2021/04/27 13:17:23;;;;;;;5.95;4.53;;;;;;;;;;5033487;28;39392;-80
2021/04/27 13:19:52;;;;;;;9.70;4.72;;;;;;;;;;5042193;28;38889;-79
2021/04/27 13:22:20;;;;;;;7.50;4.88;;;;;;;;;;5042080;28;38978;-80
2021/04/27 13:24:49;;;;;;;5.68;4.07;;;;;;;;;;5049568;28;40228;-79
2021/04/27 13:27:26;;;;;;;6.63;4.80;;;;;;;;;;5045063;28;38250;-80
2021/04/27 13:30:04;;;;;;;6.60;5.53;;;;;;;;;;5047481;28;39113;-80
2021/04/27 13:32:30;;;;;;;7.38;4.85;;;;;;;;;;5044567;28;46750;-79
2021/04/27 13:35:15;;;;;;;5.95;4.70;;;;;;;;;;5048298;28;40083;-79
2021/04/27 13:37:45;;;;;;;5.53;4.38;;;;;;;;;;5044122;28;47267;-79
2021/04/27 13:40:13;;;;;;;6.93;4.53;;;;;;;;;;5045606;28;40326;-79
2021/04/27 13:42:45;;;;;;;9.20;5.07;;;;;;;;;;5041694;28;35714;-79
2021/04/27 13:45:11;;;;;;;6.80;4.50;;;;;;;;;;5038131;28;38536;-79
2021/04/27 13:47:38;;;;;;;12.50;4.80;;;;;;;;;;5038675;28;38068;-79
2021/04/27 13:50:04;;;;;;;5.45;4.45;;;;;;;;;;5041020;28;39768;-78
2021/04/27 13:52:31;;;;;;;6.68;4.25;;;;;;;;;;5041218;28;36617;-79
2021/04/27 13:54:57;;;;;;;5.78;4.22;;;;;;;;;;5044802;28;39761;-79
2021/04/27 13:57:23;;;;;;;5.57;5.00;;;;;;;;;;5046924;28;40430;-77
2021/04/27 13:59:50;;;;;;;6.45;4.05;;;;;;;;;;5041357;28;38763;-77
2021/04/27 14:02:16;;;;;;;11.02;4.90;;;;;;;;;;5035829;28;37182;-80
2021/04/27 14:04:42;;;;;;;4.82;4.32;;;;;;;;;;5037331;28;39752;-78
2021/04/27 14:07:09;;;;;;;7.10;4.32;;;;;;;;;;5038049;28;40574;-79
2021/04/27 14:09:37;;;;;;;8.15;5.63;;;;;;;;;;5039091;28;39173;-80
2021/04/27 14:12:04;;;;;;;8.50;4.75;;;;;;;;;;5049116;28;37074;-80
2021/04/27 14:14:30;;;;;;;5.35;4.60;;;;;;;;;;5050328;28;40260;-78
2021/04/27 14:16:57;;;;;;;5.88;5.05;;;;;;;;;;5050920;28;37698;-80
2021/04/27 14:19:23;;;;;;;6.28;4.82;;;;;;;;;;5052283;28;38498;-80
2021/04/27 14:21:50;;;;;;;11.48;5.45;;;;;;;;;;5054360;28;35973;-80
2021/04/27 14:24:16;;;;;;;6.80;4.90;;;;;;;;;;5051336;28;40008;-80
2021/04/27 14:26:42;;;;;;;5.45;4.95;;;;;;;;;;5052134;28;39041;-80
2021/04/27 14:29:09;;;;;;;11.82;4.90;;;;;;;;;;5056227;28;39114;-80
2021/04/27 14:31:36;;;;;;;4.68;4.28;;;;;;;;;;5057342;28;36877;-80
2021/04/27 14:34:03;;;;;;;6.32;5.22;;;;;;;;;;5048249;28;39516;-80
2021/04/27 14:36:29;;;;;;;6.43;5.03;;;;;;;;;;5053398;28;38897;-80
2021/04/27 14:38:56;;;;;;;6.75;4.68;;;;;;;;;;5050283;28;38580;-79
2021/04/27 14:41:22;;;;;;;5.80;5.18;;;;;;;;;;5051251;28;37063;-79
2021/04/27 14:43:49;;;;;;;6.85;4.75;;;;;;;;;;5052533;28;39774;-79
2021/04/27 14:46:15;;;;;;;6.97;4.88;;;;;;;;;;5040324;28;40446;-80
2021/04/27 14:48:42;;;;;;;6.80;5.90;;;;;;;;;;5044053;28;36953;-79
2021/04/27 14:51:09;;;;;;;8.77;5.40;;;;;;;;;;5052484;28;36641;-78
2021/04/27 14:53:36;;;;;;;6.35;5.10;;;;;;;;;;5039386;28;39686;-80
2021/04/27 14:56:02;;;;;;;7.93;5.25;;;;;;;;;;5046582;28;40135;-78
2021/04/27 14:58:29;;;;;;;8.35;5.72;;;;;;;;;;5062841;28;37392;-79
2021/04/27 15:00:55;;;;;;;5.95;4.75;;;;;;;;;;5043600;28;38140;-79
2021/04/27 15:03:21;;;;;;;8.73;4.93;;;;;;;;;;5047827;28;38073;-82
2021/04/27 15:05:48;;;;;;;9.48;5.32;;;;;;;;;;5044254;28;39632;-79
2021/04/27 15:08:14;;;;;;;8.13;5.60;;;;;;;;;;5022024;28;37247;-79
2021/04/27 15:10:42;;;;;;;9.80;6.45;;;;;;;;;;5044587;28;37435;-79
2021/04/27 15:13:08;;;;;;;7.18;6.13;;;;;;;;;;5056663;28;40658;-78
2021/04/27 15:15:35;;;;;;;12.45;6.63;;;;;;;;;;5054272;28;38230;-78